RYR3845 GMMX-LFOB
Flight info
| Callsign | RYR3845 |
|---|---|
| Flight time | 2h 59m |
| Altitude | 36000 |
| Route | OBOGA UG850 VALBA UZ801 TOLSI UG5 KORIS DCT XULIM DCT VJF DCT SVL DCT HIJ DCT RUSEM DCT SOTUK DCT USOKO DCT TLD DCT SIE DCT EDIGO DCT DGO DCT CEGAM DCT BAGAS DCT SSN DCT LUSEM DCT LULUT DCT ADABI DCT BOKNO UN858 VANAD A34 LGL Z295 PEXIR |
| Aircraft | B738/M-SDE3FGILRWY/SB1 |
Departure
| Time | 2026-04-22 13:22 |
|---|---|
| Airport | Marrakesh Menara Airport (GMMX) |
Arrival
| Time | 2026-04-22 16:21 |
|---|---|
| Airport | Beauvais-Tillé airport (LFOB) |
| Time | Latitude | Longitude | Altitude | Speed | Heading |
|---|---|---|---|---|---|
| 2026-04-22 13:12 | 31.60342 | -8.02449 | 1537 ft | 0 kts | 185° |
| 2026-04-22 13:16 | 31.60351 | -8.02448 | 1537 ft | 4 kts | 185° |
| 2026-04-22 13:16 | 31.60374 | -8.02445 | 1537 ft | 4 kts | 179° |
| 2026-04-22 13:16 | 31.60399 | -8.02451 | 1536 ft | 4 kts | 141° |
| 2026-04-22 13:17 | 31.60414 | -8.02475 | 1528 ft | 4 kts | 105° |
| 2026-04-22 13:17 | 31.60419 | -8.02506 | 1530 ft | 4 kts | 94° |
| 2026-04-22 13:17 | 31.60419 | -8.02519 | 1532 ft | 1 kts | 95° |
| 2026-04-22 13:19 | 31.60420 | -8.02519 | 1532 ft | 0 kts | 94° |
| 2026-04-22 13:19 | 31.60417 | -8.02490 | 1532 ft | 7 kts | 97° |
| 2026-04-22 13:19 | 31.60410 | -8.02409 | 1538 ft | 12 kts | 95° |
| 2026-04-22 13:19 | 31.60400 | -8.02291 | 1534 ft | 16 kts | 96° |
| 2026-04-22 13:20 | 31.60386 | -8.02145 | 1540 ft | 19 kts | 96° |
| 2026-04-22 13:20 | 31.60407 | -8.02040 | 1538 ft | 12 kts | 21° |
| 2026-04-22 13:20 | 31.60483 | -8.02031 | 1540 ft | 10 kts | 4° |
| 2026-04-22 13:20 | 31.60546 | -8.02043 | 1537 ft | 8 kts | 303° |
| 2026-04-22 13:21 | 31.60552 | -8.02078 | 1539 ft | 0 kts | 276° |
| 2026-04-22 13:21 | 31.60552 | -8.02080 | 1539 ft | 2 kts | 276° |
| 2026-04-22 13:21 | 31.60576 | -8.02371 | 1537 ft | 79 kts | 275° |
| 2026-04-22 13:21 | 31.60663 | -8.03342 | 1527 ft | 157 kts | 276° |
| 2026-04-22 13:22 | 31.60789 | -8.04796 | 1901 ft | 196 kts | 277° |
| 2026-04-22 13:22 | 31.60942 | -8.06517 | 2514 ft | 219 kts | 279° |
| 2026-04-22 13:22 | 31.61101 | -8.08289 | 3548 ft | 211 kts | 278° |
| 2026-04-22 13:22 | 31.61257 | -8.09983 | 4311 ft | 218 kts | 276° |
| 2026-04-22 13:23 | 31.61421 | -8.11841 | 4500 ft | 240 kts | 276° |
| 2026-04-22 13:23 | 31.61598 | -8.13868 | 4815 ft | 255 kts | 276° |
| 2026-04-22 13:23 | 31.61828 | -8.15927 | 5544 ft | 253 kts | 282° |
| 2026-04-22 13:23 | 31.62662 | -8.17762 | 6152 ft | 263 kts | 311° |
| 2026-04-22 13:24 | 31.64176 | -8.19007 | 6811 ft | 272 kts | 335° |
| 2026-04-22 13:24 | 31.66051 | -8.19434 | 7436 ft | 280 kts | 3° |
| 2026-04-22 13:24 | 31.67916 | -8.18788 | 8034 ft | 284 kts | 35° |
| 2026-04-22 13:24 | 31.69283 | -8.17164 | 8650 ft | 281 kts | 67° |
| 2026-04-22 13:25 | 31.69841 | -8.15046 | 9386 ft | 272 kts | 85° |
| 2026-04-22 13:25 | 31.70157 | -8.12831 | 10035 ft | 277 kts | 87° |
| 2026-04-22 13:25 | 31.70451 | -8.10577 | 10666 ft | 280 kts | 87° |
| 2026-04-22 13:25 | 31.70747 | -8.08298 | 11308 ft | 284 kts | 86° |
| 2026-04-22 13:26 | 31.71085 | -8.05988 | 11892 ft | 294 kts | 77° |
| 2026-04-22 13:26 | 31.72074 | -8.03740 | 12087 ft | 323 kts | 58° |
| 2026-04-22 13:26 | 31.73403 | -8.01513 | 12274 ft | 351 kts | 57° |
| 2026-04-22 13:26 | 31.74850 | -7.99065 | 12741 ft | 371 kts | 58° |
| 2026-04-22 13:27 | 31.76240 | -7.96479 | 13646 ft | 376 kts | 61° |
| 2026-04-22 13:27 | 31.77539 | -7.93839 | 14517 ft | 378 kts | 62° |
| 2026-04-22 13:27 | 31.78855 | -7.91138 | 15383 ft | 381 kts | 61° |
| 2026-04-22 13:27 | 31.80207 | -7.88425 | 16179 ft | 386 kts | 60° |
| 2026-04-22 13:28 | 31.81595 | -7.85695 | 16959 ft | 390 kts | 59° |
| 2026-04-22 13:28 | 31.82988 | -7.82976 | 17731 ft | 394 kts | 59° |
| 2026-04-22 13:28 | 31.84489 | -7.80249 | 18383 ft | 401 kts | 54° |
| 2026-04-22 13:28 | 31.86209 | -7.77631 | 18956 ft | 406 kts | 50° |
| 2026-04-22 13:29 | 31.88097 | -7.75150 | 19644 ft | 407 kts | 46° |
| 2026-04-22 13:29 | 31.90102 | -7.72773 | 20306 ft | 410 kts | 44° |
| 2026-04-22 13:29 | 31.92137 | -7.70385 | 20898 ft | 414 kts | 45° |
| 2026-04-22 13:29 | 31.94156 | -7.67941 | 21465 ft | 418 kts | 46° |
| 2026-04-22 13:30 | 31.96130 | -7.65461 | 22031 ft | 421 kts | 47° |
| 2026-04-22 13:30 | 31.98119 | -7.62901 | 22592 ft | 424 kts | 47° |
| 2026-04-22 13:30 | 32.00108 | -7.60309 | 23140 ft | 428 kts | 47° |
| 2026-04-22 13:30 | 32.02108 | -7.57698 | 23697 ft | 429 kts | 47° |
| 2026-04-22 13:31 | 32.04116 | -7.55083 | 24164 ft | 431 kts | 47° |
| 2026-04-22 13:31 | 32.06167 | -7.52535 | 24507 ft | 435 kts | 40° |
| 2026-04-22 13:31 | 32.08741 | -7.50650 | 24757 ft | 438 kts | 19° |
| 2026-04-22 13:31 | 32.11681 | -7.49813 | 25325 ft | 431 kts | 2° |
| 2026-04-22 13:32 | 32.14681 | -7.49781 | 25827 ft | 429 kts | 355° |
| 2026-04-22 13:32 | 32.17685 | -7.49958 | 26112 ft | 435 kts | 354° |
| 2026-04-22 13:32 | 32.20688 | -7.50147 | 26402 ft | 439 kts | 355° |
| 2026-04-22 13:32 | 32.23762 | -7.50218 | 26804 ft | 442 kts | 357° |
| 2026-04-22 13:33 | 32.26846 | -7.50190 | 27235 ft | 443 kts | 358° |
| 2026-04-22 13:33 | 32.29941 | -7.50144 | 27612 ft | 445 kts | 358° |
| 2026-04-22 13:33 | 32.33058 | -7.50113 | 27940 ft | 448 kts | 357° |
| 2026-04-22 13:33 | 32.36189 | -7.50105 | 28260 ft | 450 kts | 356° |
| 2026-04-22 13:34 | 32.39299 | -7.50116 | 28586 ft | 452 kts | 356° |
| 2026-04-22 13:34 | 32.42468 | -7.50138 | 28927 ft | 454 kts | 356° |
| 2026-04-22 13:34 | 32.45635 | -7.50164 | 29236 ft | 456 kts | 356° |
| 2026-04-22 13:34 | 32.48821 | -7.50190 | 29545 ft | 458 kts | 356° |
| 2026-04-22 13:35 | 32.51988 | -7.50215 | 29848 ft | 460 kts | 356° |
| 2026-04-22 13:35 | 32.55203 | -7.50238 | 30118 ft | 462 kts | 356° |
| 2026-04-22 13:35 | 32.58422 | -7.50261 | 30366 ft | 464 kts | 356° |
| 2026-04-22 13:35 | 32.61656 | -7.50284 | 30623 ft | 465 kts | 356° |
| 2026-04-22 13:36 | 32.64913 | -7.50306 | 30884 ft | 466 kts | 356° |
| 2026-04-22 13:36 | 32.68160 | -7.50319 | 31212 ft | 465 kts | 356° |
| 2026-04-22 13:36 | 32.71347 | -7.50343 | 31569 ft | 463 kts | 356° |
| 2026-04-22 13:36 | 32.74572 | -7.50375 | 31954 ft | 461 kts | 355° |
| 2026-04-22 13:37 | 32.77790 | -7.50409 | 32279 ft | 460 kts | 355° |
| 2026-04-22 13:37 | 32.80996 | -7.50443 | 32566 ft | 460 kts | 355° |
| 2026-04-22 13:37 | 32.84194 | -7.50475 | 32866 ft | 459 kts | 355° |
| 2026-04-22 13:37 | 32.86314 | -7.50495 | 33088 ft | 458 kts | 355° |
| 2026-04-22 13:38 | 32.90535 | -7.50523 | 33542 ft | 456 kts | 355° |
| 2026-04-22 13:38 | 32.95812 | -7.50540 | 34024 ft | 455 kts | 355° |
| 2026-04-22 13:38 | 32.98982 | -7.50550 | 34257 ft | 455 kts | 355° |
| 2026-04-22 13:39 | 33.02149 | -7.50561 | 34524 ft | 453 kts | 355° |
| 2026-04-22 13:39 | 33.05301 | -7.50573 | 34795 ft | 452 kts | 355° |
| 2026-04-22 13:39 | 33.08452 | -7.50587 | 34947 ft | 454 kts | 355° |
| 2026-04-22 13:39 | 33.11634 | -7.50498 | 34943 ft | 462 kts | 1° |
| 2026-04-22 13:40 | 33.14839 | -7.49746 | 34877 ft | 476 kts | 14° |
| 2026-04-22 13:40 | 33.17975 | -7.48459 | 35145 ft | 475 kts | 16° |
| 2026-04-22 13:40 | 33.21048 | -7.47151 | 35343 ft | 474 kts | 14° |
| 2026-04-22 13:40 | 33.24214 | -7.46011 | 35455 ft | 473 kts | 11° |
| 2026-04-22 13:41 | 33.27418 | -7.45055 | 35619 ft | 473 kts | 9° |
| 2026-04-22 13:41 | 33.30629 | -7.44152 | 35828 ft | 472 kts | 9° |
| 2026-04-22 13:41 | 33.33826 | -7.43236 | 36069 ft | 471 kts | 9° |
| 2026-04-22 13:41 | 33.36967 | -7.42296 | 36289 ft | 471 kts | 10° |
| 2026-04-22 13:42 | 33.40151 | -7.41302 | 36453 ft | 471 kts | 11° |
| 2026-04-22 13:42 | 33.43329 | -7.40282 | 36513 ft | 474 kts | 11° |
| 2026-04-22 13:42 | 33.49733 | -7.38182 | 36624 ft | 478 kts | 11° |
| 2026-04-22 13:43 | 33.52908 | -7.37135 | 36747 ft | 478 kts | 11° |
| 2026-04-22 13:43 | 33.56108 | -7.36077 | 37048 ft | 473 kts | 11° |
| 2026-04-22 13:43 | 33.59269 | -7.35032 | 37474 ft | 467 kts | 11° |
| 2026-04-22 13:43 | 33.62390 | -7.34002 | 37882 ft | 462 kts | 11° |
| 2026-04-22 13:44 | 33.65500 | -7.32978 | 38001 ft | 463 kts | 11° |
| 2026-04-22 13:44 | 33.68592 | -7.31964 | 37925 ft | 468 kts | 11° |
| 2026-04-22 13:44 | 33.74921 | -7.29886 | 37972 ft | 474 kts | 11° |
| 2026-04-22 13:45 | 33.81319 | -7.27777 | 37978 ft | 478 kts | 11° |
| 2026-04-22 13:45 | 33.87729 | -7.25656 | 37975 ft | 481 kts | 11° |
| 2026-04-22 13:46 | 33.94202 | -7.23512 | 37982 ft | 483 kts | 11° |
| 2026-04-22 13:46 | 34.00658 | -7.21371 | 38001 ft | 484 kts | 11° |
| 2026-04-22 13:47 | 34.07160 | -7.19212 | 37989 ft | 482 kts | 11° |
| 2026-04-22 13:47 | 34.13554 | -7.17079 | 37986 ft | 469 kts | 11° |
| 2026-04-22 13:48 | 34.19800 | -7.14999 | 37977 ft | 466 kts | 11° |
| 2026-04-22 13:48 | 34.26050 | -7.12917 | 37986 ft | 464 kts | 11° |
| 2026-04-22 13:49 | 34.32282 | -7.10836 | 38010 ft | 464 kts | 11° |
| 2026-04-22 13:49 | 34.38476 | -7.08764 | 37999 ft | 464 kts | 11° |
| 2026-04-22 13:50 | 34.44715 | -7.06672 | 37991 ft | 465 kts | 11° |
| 2026-04-22 13:50 | 34.50922 | -7.04588 | 38006 ft | 466 kts | 11° |
| 2026-04-22 13:51 | 34.57182 | -7.02484 | 38017 ft | 467 kts | 11° |
| 2026-04-22 13:51 | 34.63403 | -7.00026 | 37985 ft | 473 kts | 19° |
| 2026-04-22 13:52 | 34.69353 | -6.96527 | 37990 ft | 478 kts | 26° |
| 2026-04-22 13:52 | 34.75131 | -6.92534 | 38008 ft | 478 kts | 26° |
| 2026-04-22 13:53 | 34.80996 | -6.88687 | 38037 ft | 477 kts | 24° |
| 2026-04-22 13:53 | 34.86887 | -6.85028 | 37996 ft | 477 kts | 23° |
| 2026-04-22 13:54 | 34.92822 | -6.81394 | 37966 ft | 477 kts | 23° |
| 2026-04-22 13:54 | 34.98738 | -6.77757 | 37985 ft | 475 kts | 23° |
| 2026-04-22 13:55 | 35.04601 | -6.74134 | 38006 ft | 474 kts | 23° |
| 2026-04-22 13:55 | 35.10482 | -6.70490 | 38013 ft | 473 kts | 23° |
| 2026-04-22 13:56 | 35.16327 | -6.66864 | 37976 ft | 472 kts | 23° |
| 2026-04-22 13:56 | 35.22185 | -6.63223 | 37998 ft | 471 kts | 23° |
| 2026-04-22 13:57 | 35.28044 | -6.59577 | 37998 ft | 471 kts | 23° |
| 2026-04-22 13:57 | 35.33855 | -6.55954 | 38006 ft | 470 kts | 23° |
| 2026-04-22 13:58 | 35.39699 | -6.52304 | 37987 ft | 470 kts | 23° |
| 2026-04-22 13:58 | 35.45525 | -6.48656 | 37992 ft | 470 kts | 24° |
| 2026-04-22 13:59 | 35.51271 | -6.44927 | 37993 ft | 470 kts | 24° |
| 2026-04-22 13:59 | 35.57049 | -6.41121 | 37996 ft | 469 kts | 24° |
| 2026-04-22 14:00 | 35.62777 | -6.37362 | 37994 ft | 469 kts | 24° |
| 2026-04-22 14:00 | 35.68547 | -6.33582 | 37986 ft | 469 kts | 24° |
| 2026-04-22 14:01 | 35.74310 | -6.29799 | 37994 ft | 469 kts | 24° |
| 2026-04-22 14:01 | 35.80079 | -6.26016 | 37993 ft | 469 kts | 24° |
| 2026-04-22 14:02 | 35.85821 | -6.22263 | 37995 ft | 468 kts | 24° |
| 2026-04-22 14:02 | 35.91608 | -6.18554 | 38017 ft | 468 kts | 23° |
| 2026-04-22 14:03 | 35.97365 | -6.14845 | 38012 ft | 468 kts | 24° |
| 2026-04-22 14:03 | 36.03143 | -6.11100 | 38015 ft | 469 kts | 24° |
| 2026-04-22 14:04 | 36.08922 | -6.07348 | 38017 ft | 468 kts | 24° |
| 2026-04-22 14:04 | 36.14651 | -6.03625 | 38006 ft | 468 kts | 24° |
| 2026-04-22 14:05 | 36.20422 | -5.99869 | 38016 ft | 466 kts | 24° |
| 2026-04-22 14:05 | 36.26318 | -5.96728 | 37948 ft | 459 kts | 8° |
| 2026-04-22 14:06 | 36.29449 | -5.96165 | 38071 ft | 450 kts | 0° |
| 2026-04-22 14:06 | 36.35714 | -5.95664 | 38010 ft | 452 kts | 0° |
| 2026-04-22 14:07 | 36.41940 | -5.94668 | 37999 ft | 455 kts | 5° |
| 2026-04-22 14:07 | 36.48197 | -5.93384 | 37973 ft | 455 kts | 5° |
| 2026-04-22 14:08 | 36.54469 | -5.92169 | 37983 ft | 454 kts | 4° |
| 2026-04-22 14:08 | 36.60695 | -5.91038 | 38011 ft | 454 kts | 4° |
| 2026-04-22 14:09 | 36.66970 | -5.89920 | 37994 ft | 455 kts | 4° |
| 2026-04-22 14:09 | 36.73249 | -5.88800 | 37986 ft | 455 kts | 4° |
| 2026-04-22 14:10 | 36.79482 | -5.87681 | 37977 ft | 455 kts | 4° |
| 2026-04-22 14:10 | 36.85761 | -5.86551 | 37991 ft | 455 kts | 4° |
| 2026-04-22 14:11 | 36.91990 | -5.85429 | 37994 ft | 454 kts | 4° |
| 2026-04-22 14:11 | 36.98265 | -5.84296 | 37966 ft | 455 kts | 4° |
| 2026-04-22 14:12 | 37.04508 | -5.83166 | 37964 ft | 455 kts | 4° |
| 2026-04-22 14:12 | 37.10794 | -5.82028 | 38002 ft | 454 kts | 4° |
| 2026-04-22 14:13 | 37.17031 | -5.80897 | 37982 ft | 454 kts | 4° |
| 2026-04-22 14:13 | 37.23296 | -5.79758 | 37963 ft | 454 kts | 4° |
| 2026-04-22 14:14 | 37.29537 | -5.78622 | 37972 ft | 454 kts | 4° |
| 2026-04-22 14:14 | 37.35804 | -5.77479 | 37995 ft | 454 kts | 4° |
| 2026-04-22 14:15 | 37.42057 | -5.76251 | 37984 ft | 457 kts | 9° |
| 2026-04-22 14:15 | 37.45049 | -5.74969 | 37942 ft | 463 kts | 23° |
| 2026-04-22 14:15 | 37.47886 | -5.73059 | 38074 ft | 462 kts | 26° |
| 2026-04-22 14:16 | 37.53584 | -5.69200 | 37982 ft | 463 kts | 22° |
| 2026-04-22 14:16 | 37.59420 | -5.65895 | 37996 ft | 462 kts | 20° |
| 2026-04-22 14:17 | 37.65293 | -5.62551 | 37977 ft | 463 kts | 21° |
| 2026-04-22 14:17 | 37.71132 | -5.59067 | 37988 ft | 463 kts | 22° |
| 2026-04-22 14:18 | 37.76915 | -5.55543 | 37976 ft | 463 kts | 22° |
| 2026-04-22 14:18 | 37.82729 | -5.51986 | 38000 ft | 463 kts | 23° |
| 2026-04-22 14:19 | 37.88508 | -5.48452 | 37981 ft | 464 kts | 23° |
| 2026-04-22 14:19 | 37.94338 | -5.44884 | 37995 ft | 463 kts | 23° |
| 2026-04-22 14:20 | 38.03019 | -5.39561 | 37991 ft | 463 kts | 23° |
| 2026-04-22 14:20 | 38.08797 | -5.36010 | 38000 ft | 463 kts | 23° |
| 2026-04-22 14:21 | 38.17512 | -5.30642 | 37993 ft | 463 kts | 23° |
| 2026-04-22 14:22 | 38.26190 | -5.25282 | 37985 ft | 463 kts | 23° |
| 2026-04-22 14:23 | 38.34854 | -5.19916 | 37984 ft | 463 kts | 23° |
| 2026-04-22 14:23 | 38.40665 | -5.16308 | 37993 ft | 463 kts | 23° |
| 2026-04-22 14:24 | 38.46463 | -5.12703 | 37986 ft | 463 kts | 23° |
| 2026-04-22 14:24 | 38.52236 | -5.09164 | 37984 ft | 462 kts | 21° |
| 2026-04-22 14:25 | 38.58185 | -5.06053 | 38006 ft | 461 kts | 18° |
| 2026-04-22 14:25 | 38.64155 | -5.03119 | 37996 ft | 461 kts | 18° |
| 2026-04-22 14:26 | 38.70144 | -5.00106 | 37988 ft | 462 kts | 19° |
| 2026-04-22 14:26 | 38.75113 | -4.97557 | 38014 ft | 461 kts | 19° |
| 2026-04-22 14:27 | 38.81085 | -4.94477 | 38016 ft | 461 kts | 19° |
| 2026-04-22 14:27 | 38.87012 | -4.91418 | 37990 ft | 461 kts | 19° |
| 2026-04-22 14:28 | 38.92965 | -4.88343 | 37974 ft | 461 kts | 19° |
| 2026-04-22 14:28 | 38.98920 | -4.85261 | 37984 ft | 460 kts | 19° |
| 2026-04-22 14:29 | 39.04827 | -4.82197 | 37996 ft | 460 kts | 19° |
| 2026-04-22 14:29 | 39.10774 | -4.79101 | 38020 ft | 459 kts | 19° |
| 2026-04-22 14:30 | 39.16686 | -4.76018 | 38032 ft | 459 kts | 19° |
| 2026-04-22 14:30 | 39.22623 | -4.72922 | 38030 ft | 459 kts | 19° |
| 2026-04-22 14:31 | 39.28525 | -4.69848 | 38027 ft | 460 kts | 19° |
| 2026-04-22 14:31 | 39.34515 | -4.66725 | 38000 ft | 466 kts | 20° |
| 2026-04-22 14:32 | 39.40521 | -4.63584 | 37989 ft | 469 kts | 20° |
| 2026-04-22 14:32 | 39.46593 | -4.60402 | 37993 ft | 471 kts | 20° |
| 2026-04-22 14:33 | 39.52671 | -4.57209 | 38007 ft | 471 kts | 20° |
| 2026-04-22 14:33 | 39.58666 | -4.54054 | 38006 ft | 464 kts | 20° |
| 2026-04-22 14:34 | 39.64629 | -4.50911 | 37997 ft | 460 kts | 20° |
| 2026-04-22 14:34 | 39.70529 | -4.47796 | 38006 ft | 459 kts | 20° |
| 2026-04-22 14:35 | 39.76450 | -4.44665 | 37997 ft | 459 kts | 20° |
| 2026-04-22 14:35 | 39.82392 | -4.41507 | 38003 ft | 460 kts | 20° |
| 2026-04-22 14:36 | 39.88292 | -4.38336 | 38007 ft | 461 kts | 20° |
| 2026-04-22 14:36 | 39.94239 | -4.35134 | 38008 ft | 462 kts | 20° |
| 2026-04-22 14:37 | 40.00153 | -4.31869 | 38009 ft | 465 kts | 22° |
| 2026-04-22 14:37 | 40.06031 | -4.28275 | 38013 ft | 466 kts | 23° |
| 2026-04-22 14:38 | 40.11891 | -4.24621 | 38011 ft | 467 kts | 23° |
| 2026-04-22 14:38 | 40.17746 | -4.21011 | 38011 ft | 467 kts | 22° |
| 2026-04-22 14:39 | 40.23641 | -4.17402 | 38017 ft | 468 kts | 22° |
| 2026-04-22 14:39 | 40.29520 | -4.13804 | 38007 ft | 468 kts | 22° |
| 2026-04-22 14:40 | 40.38365 | -4.08374 | 38017 ft | 468 kts | 22° |
| 2026-04-22 14:40 | 40.44277 | -4.04734 | 38027 ft | 469 kts | 22° |
| 2026-04-22 14:41 | 40.50159 | -4.01105 | 38028 ft | 469 kts | 22° |
| 2026-04-22 14:41 | 40.56067 | -3.97453 | 38051 ft | 469 kts | 22° |
| 2026-04-22 14:42 | 40.61981 | -3.93791 | 38066 ft | 469 kts | 22° |
| 2026-04-22 14:42 | 40.67896 | -3.90121 | 38060 ft | 469 kts | 22° |
| 2026-04-22 14:43 | 40.73773 | -3.86466 | 38087 ft | 469 kts | 22° |
| 2026-04-22 14:43 | 40.79668 | -3.82794 | 38025 ft | 468 kts | 22° |
| 2026-04-22 14:44 | 40.85565 | -3.79112 | 38019 ft | 467 kts | 22° |
| 2026-04-22 14:44 | 40.91453 | -3.75430 | 38015 ft | 467 kts | 22° |
| 2026-04-22 14:45 | 40.97295 | -3.71769 | 38001 ft | 466 kts | 22° |
| 2026-04-22 14:45 | 41.03163 | -3.68084 | 38015 ft | 465 kts | 22° |
| 2026-04-22 14:46 | 41.08985 | -3.64420 | 38012 ft | 465 kts | 22° |
| 2026-04-22 14:46 | 41.14838 | -3.60731 | 38010 ft | 465 kts | 22° |
| 2026-04-22 14:47 | 41.20773 | -3.57311 | 37988 ft | 464 kts | 19° |
| 2026-04-22 14:47 | 41.26725 | -3.54154 | 38001 ft | 463 kts | 19° |
| 2026-04-22 14:48 | 41.32719 | -3.50929 | 37994 ft | 464 kts | 19° |
| 2026-04-22 14:48 | 41.38664 | -3.47669 | 37995 ft | 464 kts | 19° |
| 2026-04-22 14:49 | 41.44636 | -3.44378 | 37985 ft | 464 kts | 19° |
| 2026-04-22 14:49 | 41.50610 | -3.41086 | 38005 ft | 462 kts | 19° |
| 2026-04-22 14:50 | 41.56525 | -3.37825 | 37989 ft | 461 kts | 19° |
| 2026-04-22 14:50 | 41.62448 | -3.34556 | 37988 ft | 460 kts | 19° |
| 2026-04-22 14:51 | 41.68324 | -3.31306 | 38000 ft | 458 kts | 19° |
| 2026-04-22 14:51 | 41.74218 | -3.28038 | 37993 ft | 458 kts | 19° |
| 2026-04-22 14:52 | 41.80120 | -3.24759 | 38000 ft | 458 kts | 19° |
| 2026-04-22 14:52 | 41.86022 | -3.21474 | 38000 ft | 458 kts | 19° |
| 2026-04-22 14:53 | 41.91881 | -3.18205 | 37996 ft | 458 kts | 19° |
| 2026-04-22 14:53 | 41.97781 | -3.14908 | 38002 ft | 459 kts | 19° |
| 2026-04-22 14:54 | 42.03652 | -3.11620 | 37998 ft | 459 kts | 19° |
| 2026-04-22 14:54 | 42.09575 | -3.08296 | 37997 ft | 460 kts | 19° |
| 2026-04-22 14:55 | 42.15462 | -3.04986 | 38004 ft | 460 kts | 19° |
| 2026-04-22 14:55 | 42.21369 | -3.01656 | 37998 ft | 460 kts | 19° |
| 2026-04-22 14:56 | 42.27286 | -2.98315 | 37988 ft | 460 kts | 19° |
| 2026-04-22 14:56 | 42.33198 | -2.94971 | 37986 ft | 460 kts | 19° |
| 2026-04-22 14:57 | 42.39110 | -2.91618 | 38000 ft | 460 kts | 19° |
| 2026-04-22 14:57 | 42.44960 | -2.88153 | 37989 ft | 463 kts | 23° |
| 2026-04-22 14:58 | 42.50276 | -2.83160 | 38010 ft | 470 kts | 41° |
| 2026-04-22 14:58 | 42.54788 | -2.76696 | 37984 ft | 473 kts | 43° |
| 2026-04-22 14:59 | 42.59505 | -2.70576 | 37989 ft | 471 kts | 37° |
| 2026-04-22 14:59 | 42.64486 | -2.64808 | 38002 ft | 471 kts | 37° |
| 2026-04-22 15:00 | 42.69441 | -2.58969 | 38025 ft | 471 kts | 38° |
| 2026-04-22 15:00 | 42.74308 | -2.53082 | 38033 ft | 470 kts | 38° |
| 2026-04-22 15:01 | 42.79182 | -2.47134 | 38050 ft | 469 kts | 38° |
| 2026-04-22 15:01 | 42.84053 | -2.41183 | 38056 ft | 469 kts | 38° |
| 2026-04-22 15:02 | 42.88891 | -2.35267 | 38034 ft | 469 kts | 38° |
| 2026-04-22 15:02 | 42.93750 | -2.29315 | 38050 ft | 469 kts | 38° |
| 2026-04-22 15:03 | 42.98616 | -2.23338 | 38020 ft | 469 kts | 38° |
| 2026-04-22 15:03 | 43.03427 | -2.17398 | 38031 ft | 470 kts | 38° |
| 2026-04-22 15:04 | 43.08270 | -2.11400 | 38038 ft | 469 kts | 38° |
| 2026-04-22 15:04 | 43.13120 | -2.05388 | 38058 ft | 469 kts | 38° |
| 2026-04-22 15:05 | 43.17938 | -1.99410 | 38078 ft | 469 kts | 38° |
| 2026-04-22 15:05 | 43.22785 | -1.93381 | 38065 ft | 469 kts | 38° |
| 2026-04-22 15:06 | 43.27587 | -1.87392 | 38082 ft | 469 kts | 38° |
| 2026-04-22 15:06 | 43.32558 | -1.81625 | 38016 ft | 463 kts | 26° |
| 2026-04-22 15:07 | 43.35393 | -1.79633 | 38171 ft | 453 kts | 19° |
| 2026-04-22 15:07 | 43.38279 | -1.77828 | 38106 ft | 456 kts | 21° |
| 2026-04-22 15:07 | 43.43691 | -1.73267 | 38088 ft | 462 kts | 30° |
| 2026-04-22 15:08 | 43.48937 | -1.68072 | 38074 ft | 463 kts | 31° |
| 2026-04-22 15:08 | 43.54204 | -1.63039 | 38078 ft | 462 kts | 29° |
| 2026-04-22 15:09 | 43.59566 | -1.58123 | 38072 ft | 462 kts | 28° |
| 2026-04-22 15:09 | 43.64956 | -1.53242 | 38068 ft | 463 kts | 28° |
| 2026-04-22 15:10 | 43.70308 | -1.48382 | 38045 ft | 463 kts | 28° |
| 2026-04-22 15:10 | 43.75691 | -1.43472 | 38042 ft | 463 kts | 28° |
| 2026-04-22 15:11 | 43.81039 | -1.38578 | 38050 ft | 462 kts | 28° |
| 2026-04-22 15:11 | 43.86413 | -1.33649 | 38032 ft | 462 kts | 28° |
| 2026-04-22 15:12 | 43.91756 | -1.28739 | 38041 ft | 462 kts | 28° |
| 2026-04-22 15:12 | 43.97095 | -1.23823 | 38044 ft | 462 kts | 28° |
| 2026-04-22 15:13 | 44.02466 | -1.18865 | 38029 ft | 462 kts | 28° |
| 2026-04-22 15:13 | 44.07830 | -1.13903 | 38029 ft | 463 kts | 28° |
| 2026-04-22 15:14 | 44.13163 | -1.08958 | 38034 ft | 462 kts | 28° |
| 2026-04-22 15:14 | 44.18512 | -1.03987 | 38010 ft | 461 kts | 28° |
| 2026-04-22 15:15 | 44.22947 | -0.99858 | 38016 ft | 460 kts | 28° |
| 2026-04-22 15:15 | 44.28252 | -0.94908 | 38018 ft | 460 kts | 28° |
| 2026-04-22 15:16 | 44.33581 | -0.89925 | 37995 ft | 460 kts | 28° |
| 2026-04-22 15:16 | 44.38909 | -0.84938 | 38019 ft | 459 kts | 28° |
| 2026-04-22 15:17 | 44.44409 | -0.80549 | 38023 ft | 454 kts | 20° |
| 2026-04-22 15:17 | 44.50204 | -0.77122 | 38001 ft | 451 kts | 15° |
| 2026-04-22 15:18 | 44.56071 | -0.73945 | 37972 ft | 452 kts | 17° |
| 2026-04-22 15:18 | 44.61846 | -0.70599 | 38003 ft | 452 kts | 18° |
| 2026-04-22 15:19 | 44.67626 | -0.67084 | 38007 ft | 452 kts | 18° |
| 2026-04-22 15:19 | 44.73391 | -0.63524 | 38000 ft | 451 kts | 19° |
| 2026-04-22 15:20 | 44.79110 | -0.59987 | 37982 ft | 452 kts | 18° |
| 2026-04-22 15:20 | 44.84858 | -0.56432 | 38003 ft | 451 kts | 18° |
| 2026-04-22 15:21 | 44.90626 | -0.52860 | 37997 ft | 451 kts | 18° |
| 2026-04-22 15:21 | 44.96350 | -0.49309 | 37983 ft | 452 kts | 19° |
| 2026-04-22 15:22 | 45.02105 | -0.45730 | 37999 ft | 452 kts | 18° |
| 2026-04-22 15:22 | 45.07871 | -0.42135 | 37974 ft | 452 kts | 19° |
| 2026-04-22 15:23 | 45.13599 | -0.38557 | 37957 ft | 452 kts | 19° |
| 2026-04-22 15:23 | 45.19358 | -0.34952 | 37970 ft | 452 kts | 19° |
| 2026-04-22 15:24 | 45.25117 | -0.31339 | 37981 ft | 452 kts | 19° |
| 2026-04-22 15:24 | 45.30865 | -0.27724 | 37978 ft | 452 kts | 19° |
| 2026-04-22 15:25 | 45.36600 | -0.24110 | 37955 ft | 453 kts | 19° |
| 2026-04-22 15:25 | 45.42357 | -0.20473 | 37955 ft | 453 kts | 19° |
| 2026-04-22 15:26 | 45.48130 | -0.16818 | 37968 ft | 452 kts | 19° |
| 2026-04-22 15:26 | 45.53866 | -0.13179 | 37959 ft | 453 kts | 19° |
| 2026-04-22 15:27 | 45.59625 | -0.09516 | 37975 ft | 452 kts | 19° |
| 2026-04-22 15:27 | 45.65388 | -0.05843 | 37983 ft | 452 kts | 19° |
| 2026-04-22 15:28 | 45.71112 | -0.02187 | 37972 ft | 453 kts | 19° |
| 2026-04-22 15:28 | 45.76872 | 0.01501 | 37997 ft | 452 kts | 19° |
| 2026-04-22 15:29 | 45.82616 | 0.05188 | 38003 ft | 451 kts | 19° |
| 2026-04-22 15:30 | 45.91182 | 0.10701 | 37997 ft | 450 kts | 19° |
| 2026-04-22 15:30 | 45.96867 | 0.14370 | 37998 ft | 449 kts | 19° |
| 2026-04-22 15:31 | 46.02601 | 0.18078 | 38011 ft | 450 kts | 19° |
| 2026-04-22 15:31 | 46.08281 | 0.21760 | 38005 ft | 450 kts | 19° |
| 2026-04-22 15:32 | 46.13993 | 0.25472 | 38019 ft | 450 kts | 19° |
| 2026-04-22 15:32 | 46.19713 | 0.29197 | 38030 ft | 450 kts | 19° |
| 2026-04-22 15:33 | 46.25418 | 0.32921 | 38041 ft | 451 kts | 19° |
| 2026-04-22 15:33 | 46.31137 | 0.36662 | 38031 ft | 451 kts | 19° |
| 2026-04-22 15:34 | 46.36829 | 0.40395 | 38067 ft | 451 kts | 19° |
| 2026-04-22 15:34 | 46.42563 | 0.44164 | 38038 ft | 451 kts | 20° |
| 2026-04-22 15:35 | 46.47321 | 0.47300 | 38037 ft | 451 kts | 20° |
| 2026-04-22 15:35 | 46.53961 | 0.51682 | 38049 ft | 451 kts | 20° |
| 2026-04-22 15:36 | 46.59833 | 0.54815 | 38043 ft | 444 kts | 9° |
| 2026-04-22 15:36 | 46.65871 | 0.56616 | 38019 ft | 443 kts | 6° |
| 2026-04-22 15:37 | 46.71892 | 0.58344 | 38035 ft | 444 kts | 7° |
| 2026-04-22 15:37 | 46.77938 | 0.60275 | 38067 ft | 444 kts | 8° |
| 2026-04-22 15:38 | 46.83941 | 0.62273 | 38076 ft | 444 kts | 8° |
| 2026-04-22 15:38 | 46.92996 | 0.65295 | 38077 ft | 444 kts | 8° |
| 2026-04-22 15:39 | 46.99046 | 0.67310 | 38083 ft | 444 kts | 8° |
| 2026-04-22 15:39 | 47.05064 | 0.69282 | 38068 ft | 444 kts | 6° |
| 2026-04-22 15:40 | 47.11159 | 0.70234 | 38130 ft | 438 kts | 359° |
| 2026-04-22 15:40 | 47.17266 | 0.70629 | 38113 ft | 438 kts | 359° |
| 2026-04-22 15:41 | 47.23348 | 0.71139 | 38121 ft | 439 kts | 360° |
| 2026-04-22 15:41 | 47.29467 | 0.71768 | 38123 ft | 440 kts | 0° |
| 2026-04-22 15:42 | 47.35557 | 0.72418 | 38115 ft | 440 kts | 0° |
| 2026-04-22 15:42 | 47.41676 | 0.73065 | 38103 ft | 440 kts | 0° |
| 2026-04-22 15:43 | 47.44731 | 0.73386 | 37941 ft | 440 kts | 0° |
| 2026-04-22 15:43 | 47.47791 | 0.73715 | 37569 ft | 439 kts | 1° |
| 2026-04-22 15:43 | 47.50826 | 0.74252 | 37326 ft | 438 kts | 5° |
| 2026-04-22 15:43 | 47.53775 | 0.75225 | 37027 ft | 441 kts | 11° |
| 2026-04-22 15:44 | 47.56707 | 0.76670 | 36780 ft | 445 kts | 16° |
| 2026-04-22 15:44 | 47.59611 | 0.78357 | 36433 ft | 449 kts | 17° |
| 2026-04-22 15:44 | 47.62521 | 0.80045 | 36003 ft | 449 kts | 16° |
| 2026-04-22 15:44 | 47.65444 | 0.81650 | 35609 ft | 447 kts | 15° |
| 2026-04-22 15:45 | 47.68383 | 0.83164 | 35181 ft | 447 kts | 13° |
| 2026-04-22 15:45 | 47.71297 | 0.84597 | 34801 ft | 446 kts | 13° |
| 2026-04-22 15:45 | 47.74244 | 0.86029 | 34391 ft | 445 kts | 13° |
| 2026-04-22 15:45 | 47.77188 | 0.87470 | 33959 ft | 444 kts | 13° |
| 2026-04-22 15:46 | 47.80127 | 0.88880 | 33509 ft | 442 kts | 11° |
| 2026-04-22 15:46 | 47.83112 | 0.89885 | 33032 ft | 435 kts | 1° |
| 2026-04-22 15:46 | 47.86082 | 0.89704 | 32758 ft | 425 kts | 346° |
| 2026-04-22 15:46 | 47.88988 | 0.88724 | 32420 ft | 433 kts | 342° |
| 2026-04-22 15:47 | 47.91923 | 0.87491 | 32008 ft | 438 kts | 341° |
| 2026-04-22 15:47 | 47.94830 | 0.86241 | 31470 ft | 442 kts | 341° |
| 2026-04-22 15:47 | 47.97808 | 0.85107 | 31172 ft | 440 kts | 343° |
| 2026-04-22 15:47 | 48.00804 | 0.84044 | 30547 ft | 445 kts | 343° |
| 2026-04-22 15:48 | 48.03811 | 0.82926 | 30024 ft | 447 kts | 343° |
| 2026-04-22 15:48 | 48.06833 | 0.81753 | 29502 ft | 448 kts | 343° |
| 2026-04-22 15:48 | 48.09852 | 0.80555 | 29031 ft | 448 kts | 343° |
| 2026-04-22 15:48 | 48.12865 | 0.79351 | 28591 ft | 448 kts | 343° |
| 2026-04-22 15:49 | 48.15884 | 0.78145 | 28122 ft | 450 kts | 343° |
| 2026-04-22 15:49 | 48.18895 | 0.76945 | 27673 ft | 454 kts | 343° |
| 2026-04-22 15:49 | 48.21968 | 0.75724 | 27213 ft | 457 kts | 343° |
| 2026-04-22 15:49 | 48.25040 | 0.74503 | 26748 ft | 455 kts | 343° |
| 2026-04-22 15:50 | 48.28112 | 0.73287 | 26324 ft | 456 kts | 343° |
| 2026-04-22 15:50 | 48.31183 | 0.72077 | 25855 ft | 456 kts | 343° |
| 2026-04-22 15:50 | 48.34250 | 0.70870 | 25402 ft | 455 kts | 343° |
| 2026-04-22 15:50 | 48.37273 | 0.69679 | 24951 ft | 452 kts | 344° |
| 2026-04-22 15:51 | 48.40306 | 0.68480 | 24495 ft | 448 kts | 344° |
| 2026-04-22 15:51 | 48.43301 | 0.67297 | 24051 ft | 440 kts | 344° |
| 2026-04-22 15:51 | 48.46258 | 0.66127 | 23577 ft | 437 kts | 345° |
| 2026-04-22 15:51 | 48.49207 | 0.64957 | 23061 ft | 437 kts | 345° |
| 2026-04-22 15:52 | 48.52154 | 0.63786 | 22609 ft | 434 kts | 344° |
| 2026-04-22 15:52 | 48.55032 | 0.62642 | 22191 ft | 432 kts | 344° |
| 2026-04-22 15:52 | 48.57945 | 0.61481 | 21730 ft | 432 kts | 344° |
| 2026-04-22 15:52 | 48.60841 | 0.60324 | 21304 ft | 427 kts | 344° |
| 2026-04-22 15:53 | 48.63693 | 0.59184 | 20870 ft | 423 kts | 344° |
| 2026-04-22 15:53 | 48.66541 | 0.58044 | 20438 ft | 423 kts | 344° |
| 2026-04-22 15:53 | 48.69378 | 0.56906 | 20005 ft | 421 kts | 344° |
| 2026-04-22 15:53 | 48.72195 | 0.55777 | 19572 ft | 414 kts | 344° |
| 2026-04-22 15:54 | 48.74971 | 0.54663 | 19157 ft | 412 kts | 344° |
| 2026-04-22 15:54 | 48.77727 | 0.53618 | 18720 ft | 411 kts | 348° |
| 2026-04-22 15:54 | 48.80578 | 0.53333 | 18207 ft | 413 kts | 2° |
| 2026-04-22 15:54 | 48.83412 | 0.53888 | 17843 ft | 408 kts | 7° |
| 2026-04-22 15:55 | 48.86217 | 0.54642 | 17354 ft | 408 kts | 8° |
| 2026-04-22 15:55 | 48.88991 | 0.55390 | 16948 ft | 403 kts | 8° |
| 2026-04-22 15:55 | 48.91773 | 0.55972 | 16509 ft | 403 kts | 5° |
| 2026-04-22 15:55 | 48.94555 | 0.56396 | 16110 ft | 397 kts | 4° |
| 2026-04-22 15:56 | 48.97294 | 0.56802 | 15697 ft | 394 kts | 5° |
| 2026-04-22 15:56 | 49.00036 | 0.57254 | 15287 ft | 397 kts | 6° |
| 2026-04-22 15:56 | 49.02764 | 0.57752 | 14875 ft | 394 kts | 6° |
| 2026-04-22 15:56 | 49.05440 | 0.58275 | 14473 ft | 393 kts | 7° |
| 2026-04-22 15:57 | 49.08148 | 0.58824 | 14073 ft | 391 kts | 8° |
| 2026-04-22 15:57 | 49.10858 | 0.59378 | 13613 ft | 393 kts | 8° |
| 2026-04-22 15:57 | 49.13563 | 0.59930 | 13170 ft | 392 kts | 9° |
| 2026-04-22 15:57 | 49.16270 | 0.60479 | 12742 ft | 391 kts | 9° |
| 2026-04-22 15:58 | 49.18957 | 0.61097 | 12328 ft | 389 kts | 12° |
| 2026-04-22 15:58 | 49.21502 | 0.62336 | 12166 ft | 382 kts | 31° |
| 2026-04-22 15:58 | 49.23455 | 0.65013 | 12232 ft | 379 kts | 51° |
| 2026-04-22 15:58 | 49.25080 | 0.68226 | 12190 ft | 382 kts | 54° |
| 2026-04-22 15:59 | 49.26693 | 0.71403 | 12191 ft | 384 kts | 51° |
| 2026-04-22 15:59 | 49.28504 | 0.74426 | 12196 ft | 383 kts | 46° |
| 2026-04-22 15:59 | 49.30387 | 0.77265 | 12196 ft | 380 kts | 45° |
| 2026-04-22 15:59 | 49.32288 | 0.80069 | 12192 ft | 378 kts | 46° |
| 2026-04-22 16:00 | 49.33541 | 0.81929 | 12193 ft | 376 kts | 46° |
| 2026-04-22 16:00 | 49.35890 | 0.85818 | 11617 ft | 369 kts | 54° |
| 2026-04-22 16:00 | 49.37340 | 0.88972 | 11425 ft | 352 kts | 60° |
| 2026-04-22 16:00 | 49.38475 | 0.92206 | 11281 ft | 336 kts | 65° |
| 2026-04-22 16:01 | 49.39442 | 0.95343 | 11154 ft | 323 kts | 67° |
| 2026-04-22 16:01 | 49.40392 | 0.98408 | 11011 ft | 311 kts | 66° |
| 2026-04-22 16:01 | 49.41338 | 1.01327 | 10915 ft | 299 kts | 66° |
| 2026-04-22 16:01 | 49.42280 | 1.04119 | 10790 ft | 289 kts | 65° |
| 2026-04-22 16:02 | 49.43200 | 1.06771 | 10520 ft | 276 kts | 64° |
| 2026-04-22 16:02 | 49.43801 | 1.08481 | 10229 ft | 274 kts | 65° |
| 2026-04-22 16:02 | 49.45011 | 1.11890 | 9473 ft | 273 kts | 65° |
| 2026-04-22 16:02 | 49.45610 | 1.13564 | 9395 ft | 263 kts | 65° |
| 2026-04-22 16:03 | 49.46477 | 1.15984 | 9262 ft | 255 kts | 65° |
| 2026-04-22 16:03 | 49.47333 | 1.18376 | 9165 ft | 259 kts | 65° |
| 2026-04-22 16:03 | 49.48217 | 1.20854 | 9044 ft | 269 kts | 65° |
| 2026-04-22 16:03 | 49.49126 | 1.23398 | 8920 ft | 271 kts | 64° |
| 2026-04-22 16:04 | 49.50023 | 1.25901 | 8800 ft | 269 kts | 65° |
| 2026-04-22 16:04 | 49.50922 | 1.28409 | 8656 ft | 267 kts | 65° |
| 2026-04-22 16:04 | 49.51821 | 1.30920 | 8538 ft | 268 kts | 64° |
| 2026-04-22 16:04 | 49.52722 | 1.33440 | 8430 ft | 268 kts | 65° |
| 2026-04-22 16:05 | 49.53620 | 1.35957 | 8308 ft | 268 kts | 65° |
| 2026-04-22 16:05 | 49.54518 | 1.38473 | 8185 ft | 268 kts | 64° |
| 2026-04-22 16:05 | 49.55400 | 1.40947 | 8065 ft | 267 kts | 65° |
| 2026-04-22 16:05 | 49.56294 | 1.43456 | 7949 ft | 265 kts | 65° |
| 2026-04-22 16:06 | 49.57185 | 1.45962 | 7837 ft | 270 kts | 65° |
| 2026-04-22 16:06 | 49.58088 | 1.48504 | 7713 ft | 270 kts | 65° |
| 2026-04-22 16:06 | 49.58988 | 1.51036 | 7581 ft | 266 kts | 65° |
| 2026-04-22 16:06 | 49.59871 | 1.53522 | 7462 ft | 262 kts | 65° |
| 2026-04-22 16:07 | 49.60740 | 1.55969 | 7361 ft | 259 kts | 65° |
| 2026-04-22 16:07 | 49.61509 | 1.58454 | 7181 ft | 255 kts | 79° |
| 2026-04-22 16:07 | 49.61619 | 1.61134 | 6999 ft | 252 kts | 95° |
| 2026-04-22 16:07 | 49.61448 | 1.63859 | 6637 ft | 259 kts | 98° |
| 2026-04-22 16:08 | 49.61237 | 1.66598 | 6343 ft | 256 kts | 98° |
| 2026-04-22 16:08 | 49.61036 | 1.69321 | 6036 ft | 254 kts | 98° |
| 2026-04-22 16:08 | 49.60845 | 1.72025 | 5740 ft | 252 kts | 98° |
| 2026-04-22 16:08 | 49.60656 | 1.74715 | 5372 ft | 252 kts | 98° |
| 2026-04-22 16:09 | 49.60255 | 1.77358 | 5056 ft | 250 kts | 116° |
| 2026-04-22 16:09 | 49.59340 | 1.79545 | 4955 ft | 241 kts | 124° |
| 2026-04-22 16:09 | 49.58363 | 1.81567 | 4873 ft | 226 kts | 124° |
| 2026-04-22 16:09 | 49.57504 | 1.83469 | 4842 ft | 205 kts | 122° |
| 2026-04-22 16:10 | 49.56750 | 1.85219 | 4792 ft | 187 kts | 121° |
| 2026-04-22 16:10 | 49.56069 | 1.86804 | 4767 ft | 172 kts | 121° |
| 2026-04-22 16:10 | 49.55434 | 1.88277 | 4732 ft | 156 kts | 120° |
| 2026-04-22 16:10 | 49.54868 | 1.89587 | 4672 ft | 139 kts | 120° |
| 2026-04-22 16:11 | 49.54345 | 1.90799 | 4684 ft | 133 kts | 120° |
| 2026-04-22 16:11 | 49.53841 | 1.91963 | 4702 ft | 131 kts | 120° |
| 2026-04-22 16:11 | 49.53339 | 1.93124 | 4638 ft | 126 kts | 120° |
| 2026-04-22 16:11 | 49.52863 | 1.94219 | 4591 ft | 119 kts | 120° |
| 2026-04-22 16:12 | 49.52414 | 1.95251 | 4582 ft | 118 kts | 119° |
| 2026-04-22 16:12 | 49.51824 | 1.96567 | 4296 ft | 165 kts | 122° |
| 2026-04-22 16:12 | 49.51156 | 1.97764 | 4672 ft | 129 kts | 129° |
| 2026-04-22 16:12 | 49.50556 | 1.98642 | 4498 ft | 119 kts | 131° |
| 2026-04-22 16:13 | 49.49824 | 1.99394 | 3886 ft | 141 kts | 155° |
| 2026-04-22 16:13 | 49.48771 | 1.99146 | 3296 ft | 170 kts | 207° |
| 2026-04-22 16:13 | 49.48062 | 1.97580 | 3137 ft | 190 kts | 255° |
| 2026-04-22 16:13 | 49.48160 | 1.95571 | 3068 ft | 193 kts | 292° |
| 2026-04-22 16:14 | 49.48594 | 1.93627 | 3041 ft | 195 kts | 293° |
| 2026-04-22 16:14 | 49.49083 | 1.91746 | 2998 ft | 184 kts | 297° |
| 2026-04-22 16:14 | 49.49572 | 1.89968 | 2981 ft | 177 kts | 297° |
| 2026-04-22 16:14 | 49.49961 | 1.88239 | 2974 ft | 167 kts | 290° |
| 2026-04-22 16:15 | 49.50397 | 1.86580 | 2971 ft | 170 kts | 316° |
| 2026-04-22 16:15 | 49.51362 | 1.85913 | 2974 ft | 147 kts | 17° |
| 2026-04-22 16:15 | 49.52172 | 1.86642 | 2994 ft | 134 kts | 54° |
| 2026-04-22 16:15 | 49.52455 | 1.87933 | 3050 ft | 127 kts | 81° |
| 2026-04-22 16:16 | 49.52651 | 1.89277 | 3002 ft | 129 kts | 77° |
| 2026-04-22 16:16 | 49.52861 | 1.90607 | 2998 ft | 127 kts | 77° |
| 2026-04-22 16:16 | 49.53073 | 1.91939 | 2995 ft | 128 kts | 77° |
| 2026-04-22 16:16 | 49.53134 | 1.93282 | 2983 ft | 128 kts | 104° |
| 2026-04-22 16:17 | 49.52654 | 1.94433 | 3027 ft | 127 kts | 118° |
| 2026-04-22 16:17 | 49.52169 | 1.95567 | 2894 ft | 129 kts | 118° |
| 2026-04-22 16:17 | 49.51638 | 1.96700 | 2615 ft | 130 kts | 121° |
| 2026-04-22 16:17 | 49.51107 | 1.97803 | 2350 ft | 127 kts | 115° |
| 2026-04-22 16:18 | 49.50679 | 1.98933 | 2212 ft | 123 kts | 115° |
| 2026-04-22 16:18 | 49.50258 | 2.00099 | 2057 ft | 126 kts | 114° |
| 2026-04-22 16:18 | 49.49789 | 2.01253 | 1908 ft | 127 kts | 120° |
| 2026-04-22 16:18 | 49.49284 | 2.02376 | 1798 ft | 127 kts | 118° |
| 2026-04-22 16:19 | 49.48794 | 2.03528 | 1568 ft | 131 kts | 117° |
| 2026-04-22 16:19 | 49.48302 | 2.04692 | 1314 ft | 127 kts | 117° |
| 2026-04-22 16:19 | 49.47828 | 2.05790 | 1015 ft | 123 kts | 117° |
| 2026-04-22 16:19 | 49.47306 | 2.06980 | 892 ft | 134 kts | 119° |
| 2026-04-22 16:20 | 49.46795 | 2.08169 | 740 ft | 131 kts | 118° |
| 2026-04-22 16:20 | 49.46274 | 2.09381 | 578 ft | 141 kts | 121° |
| 2026-04-22 16:20 | 49.45740 | 2.10602 | 382 ft | 136 kts | 122° |
| 2026-04-22 16:20 | 49.45264 | 2.11699 | 339 ft | 101 kts | 126° |
| 2026-04-22 16:21 | 49.44980 | 2.12339 | 353 ft | 56 kts | 124° |
| 2026-04-22 16:21 | 49.44780 | 2.12800 | 351 ft | 47 kts | 123° |
| 2026-04-22 16:21 | 49.44677 | 2.13091 | 355 ft | 15 kts | 98° |
| 2026-04-22 16:21 | 49.44645 | 2.13159 | 350 ft | 5 kts | 214° |
| 2026-04-22 16:22 | 49.44671 | 2.13047 | 355 ft | 18 kts | 304° |
| 2026-04-22 16:22 | 49.44754 | 2.12853 | 352 ft | 23 kts | 303° |
| 2026-04-22 16:22 | 49.44842 | 2.12648 | 348 ft | 24 kts | 306° |
| 2026-04-22 16:23 | 49.45017 | 2.12252 | 346 ft | 21 kts | 303° |
| 2026-04-22 16:23 | 49.45095 | 2.12072 | 349 ft | 21 kts | 306° |
| 2026-04-22 16:23 | 49.45182 | 2.11873 | 353 ft | 24 kts | 304° |
| 2026-04-22 16:24 | 49.45282 | 2.11644 | 337 ft | 26 kts | 304° |
| 2026-04-22 16:24 | 49.45482 | 2.11185 | 337 ft | 25 kts | 304° |
| 2026-04-22 16:24 | 49.45572 | 2.10977 | 333 ft | 19 kts | 303° |
| 2026-04-22 16:25 | 49.45660 | 2.10875 | 335 ft | 16 kts | 15° |
| 2026-04-22 16:25 | 49.45788 | 2.11028 | 336 ft | 6 kts | 109° |
| 2026-04-22 16:25 | 49.45777 | 2.11058 | 333 ft | 0 kts | 121° |
| 2026-04-22 16:26 | 49.45775 | 2.11063 | 333 ft | 3 kts | 122° |
| 2026-04-22 16:26 | 49.45776 | 2.11131 | 332 ft | 11 kts | 41° |
| 2026-04-22 16:26 | 49.45809 | 2.11164 | 335 ft | 0 kts | 33° |